logo
App data

Space Beret

Space Beret is a top down sci-fi shooter set in a "Starship Troopers" and "Crimsonland" inspired setting. In it, mankind is forced to fight hordes of horrible monstrosities in a desperate struggle for survival.
Store | Hub | SteamDB | Site
Developer: Amaterasu Software Publisher: Amaterasu Software
Genre: Action, Casual, Indie
Languages: English
Tags: Casual (30), Action (29), Indie (28)
Category: Single-player, Steam Achievements, Steam Trading Cards
Release date: Oct 25, 2016
Price: $0.99
Old userscore: 50% Owners: 200,000 .. 500,000
Followers: 181
Peak concurrent players yesterday: 2
Playtime in the last 2 weeks: 04:19 (average) 04:19 (median)
Playtime total: 03:49 (average) 03:32 (median)

Steam Spy is still in beta, so expect major bugs.

Owners data:

Access restricted.

This feature is only available to users with special access rights. Sorry.

If you want to proceed, you need to register or log in first and then back Steam Spy on Patreon. Look for Indie or Pro pledge.

Don't forget to use the same email as on Steam Spy!

Audience in 2 weeks:

Access restricted.

This feature is only available to users with special access rights. Sorry.

If you want to proceed, you need to register or log in first and then back Steam Spy on Patreon. Look for Indie or Pro pledge.

Don't forget to use the same email as on Steam Spy!

Peak daily concurrent players:

CCU data courtesy of SteamDB. Used with permission.

Hourly concurrent players:

YouTube:

The views data is based on top 50 videos uploaded last week. Actual number of views might be more than the number shown.

The displayed number of videos uploaded yesterday is limited to 50, so if there were more videos uploaded, the number will still show 50.

If the game has commonly used word as its name (like "FEAR" or "Volume") its number of Youtube views might be wrong.

Games similar to this one:

# Game Release date
Price
Score rank
(Userscore / Metascore)
Owners
Players
Playtime (Median)
1 Night Blights Apr 15, 2016 $6.99100% (100%)0 .. 20,0000%00:00 (00:00)
2 Everyday Genius: SquareLogic Oct 9, 2009 $4.9999% (98%)0 .. 20,0000%00:00 (00:00)
3 Unium Feb 3, 2015 $1.9993% (95%)20,000 .. 50,0000%00:00 (00:00)
4 Divide By Sheep Jul 2, 2015 $4.9993% (95%/83%)20,000 .. 50,0000.64%21:16 (13:15)
5 Moonlight Feb 5, 2016 $1.9993% (95%)0 .. 20,0000%00:00 (00:00)
6 Estiman Nov 23, 2016 $0.99N/A (N/A)0 .. 20,0000%00:00 (00:00)
7 The Way We All Go Mar 24, 2015 $5.9977% (90%)0 .. 20,0000%00:00 (00:00)
8 Cloudberry Kingdom Aug 2, 2013 $9.9977% (90%/67%)20,000 .. 50,0000%00:00 (00:00)
9 Koala Kids Jun 22, 2015 $0.4977% (90%)20,000 .. 50,0000%00:00 (00:00)
10 This Starry Midnight We Make Jun 1, 2015 $9.99N/A (N/A)0 .. 20,0000%00:00 (00:00)
11 Forgotten, Not Lost - A Kinetic Novel Apr 1, 2016 $1.9973% (89%)50,000 .. 100,0000.3%05:23 (01:47)
12 Lobotomy Corporation | Monster Management Simulation Apr 9, 2018 $24.9973% (89%)100,000 .. 200,0001.8%00:28 (00:18)
13 Rooms: The Unsolvable Puzzle May 1, 2015 $14.9971% (88%/66%)0 .. 20,0000%00:00 (00:00)
14 Masochisia Oct 9, 2015 $7.9965% (86%/68%)20,000 .. 50,0000%00:00 (00:00)
15 Alpha Runner Sep 2, 2015 $0.9965% (86%)100,000 .. 200,0000.34%69:15 (23:05)
16 In Between Aug 21, 2015 $11.9965% (86%/68%)20,000 .. 50,0000%00:00 (00:00)
17 Anode Oct 5, 2015 $3.9965% (86%)0 .. 20,0000%00:00 (00:00)
18 Security Hole Sep 28, 2016 $9.99N/A (N/A)0 .. 20,0000%00:00 (00:00)
19 Gigachess Dec 15, 2015 $0.99N/A (N/A)0 .. 20,0000%00:00 (00:00)
20 Sentinel 4: Dark Star Aug 13, 2015 $6.99N/A (N/A)0 .. 20,0000%00:00 (00:00)
21 Project Starship Apr 5, 2016 $0.9962% (85%)200,000 .. 500,0000.07%00:01 (00:00)
22 Collisions Jul 28, 2015 $3.9960% (84%)20,000 .. 50,0000%00:00 (00:00)
23 Crash Drive 2 May 28, 2015 $4.9960% (84%)100,000 .. 200,0000%00:00 (00:00)
24 Governor of Poker 2 - Premium Edition Oct 11, 2010 $14.9960% (84%)20,000 .. 50,0000%00:00 (00:00)
25 Cute Things Dying Violently Sep 2, 2015 $2.9957% (83%)20,000 .. 50,0000%00:00 (00:00)
26 Ancients of Ooga May 20, 2011 $9.99N/A (N/A)20,000 .. 50,0000%00:00 (00:00)
27 Automation - The Car Company Tycoon Game Mar 12, 2015 $29.9955% (82%)50,000 .. 100,00018.26%01:24 (00:59)
28 Stay Alight Mar 2, 2015 $3.9952% (81%)50,000 .. 100,0000%00:00 (00:00)
29 Iron Sea Defenders Sep 9, 2016 $4.9952% (81%)20,000 .. 50,0000.79%03:01 (02:00)
30 Egg Returns Home May 5, 2015 $0.9950% (80%)50,000 .. 100,0000%00:00 (00:00)
31 Star Sky - ブルームーン Oct 23, 2015 $1.9950% (80%)0 .. 20,0000%00:00 (00:00)
32 Space Drifters 2D Mar 28, 2016 $0.99N/A (N/A)20,000 .. 50,0000%00:00 (00:00)
33 Until I Have You Apr 4, 2016 $13.9948% (79%)0 .. 20,0000%00:00 (00:00)
34 The Last NightMary - A Lenda do Cabeça de Cuia Nov 2, 2015 $3.9948% (79%)50,000 .. 100,0000%00:00 (00:00)
35 GamersGoMakers Aug 8, 2014 $9.9948% (79%)50,000 .. 100,0000%00:00 (00:00)
36 CAPSULE Feb 14, 2012 $4.9946% (78%)20,000 .. 50,0000%00:00 (00:00)
37 Particulars Nov 19, 2014 $5.9946% (78%/74%)20,000 .. 50,0000%00:00 (00:00)
38 Ionball 2: Ionstorm Jun 6, 2014 $4.9944% (77%/70%)200,000 .. 500,0000.11%04:31 (01:30)
39 MXGP - The Official Motocross Videogame Mar 28, 2014 $19.9944% (77%)200,000 .. 500,0000%00:00 (00:00)
40 Paranormal State: Poison Spring Nov 26, 2013 $9.9944% (77%)50,000 .. 100,0000%00:00 (00:00)
41 Alchemy Mysteries: Prague Legends Dec 22, 2014 $1.9944% (77%)100,000 .. 200,0000%00:00 (00:00)
42 Pixel Puzzles 2: Birds Feb 20, 2015 $1.9944% (77%)100,000 .. 200,0000.54%34:22 (34:22)
43 Mayhem Intergalactic Jul 4, 2007 $9.99N/A (N/A)0 .. 20,0000%00:00 (00:00)
44 The Deletion Jul 30, 2015 $1.9942% (76%)20,000 .. 50,0000%00:00 (00:00)
45 Crash Wheels Dec 20, 2018 $4.9940% (75%)20,000 .. 50,0004.69%02:03 (01:46)
46 BalanCity Sep 21, 2016 $7.9940% (75%)20,000 .. 50,0003.33%00:25 (00:19)
47 Neon Prism Nov 18, 2016 $4.9938% (74%)50,000 .. 100,0000.69%01:36 (01:35)
48 Riddles Of The Past Jul 22, 2016 $6.9936% (73%)0 .. 20,0000%00:00 (00:00)
49 Laserlife Sep 22, 2015 $9.9936% (73%)0 .. 20,0000%00:00 (00:00)
50 Crashed Lander Jun 17, 2014 $4.99N/A (N/A)0 .. 20,0000%00:00 (00:00)
51 Cheesecake Cool Conrad Oct 8, 2014 $4.99N/A (N/A)0 .. 20,0000%00:00 (00:00)
52 Impossible Quest Jun 3, 2016 $1.9928% (68%)0 .. 20,0000%00:00 (00:00)
53 Ace Of Words May 13, 2016 $4.99N/A (N/A)100,000 .. 200,0000%00:00 (00:00)
54 Strategy & Tactics: Dark Ages Aug 4, 2017 $14.9928% (68%)20,000 .. 50,0002.82%67:07 (44:01)
55 Viking Brothers Apr 23, 2014 $9.99N/A (N/A)0 .. 20,0000%00:00 (00:00)
56 Mind Games Mar 4, 2016 $2.9927% (67%)0 .. 20,0000%00:00 (00:00)
57 Caravanserail Mar 10, 2016 $2.99N/A (N/A)0 .. 20,0000%00:00 (00:00)
58 Wildlife Park 2 May 12, 2006 $6.9925% (66%)50,000 .. 100,0004.55%04:15 (01:25)
59 Reset 1-1 Aug 30, 2016 $1.9924% (65%)200,000 .. 500,0000%00:00 (00:00)
60 Hoplite Dec 14, 2016 $0.99N/A (N/A)50,000 .. 100,0003.23%03:56 (04:34)
61 Marble Duel Nov 12, 2015 $4.9922% (63%)50,000 .. 100,0001.6%01:43 (00:58)
62 Metrocide Oct 20, 2014 $12.9922% (63%/68%)20,000 .. 50,0000%00:00 (00:00)
63 Meadowland Oct 22, 2014 $0.99N/A (N/A)0 .. 20,0000%00:00 (00:00)
64 Won't You Be My Laser? Sep 2, 2016 $0.99N/A (N/A)0 .. 20,0000%00:00 (00:00)
65 Goodnight Butcher Dec 18, 2015 $1.99N/A (N/A)20,000 .. 50,0000%00:00 (00:00)
66 Airstrike HD Mar 23, 2016 $1.99N/A (N/A)100,000 .. 200,0000%00:00 (00:00)
67 Pixel Survivors May 5, 2016 $3.9918% (60%)50,000 .. 100,0000%00:00 (00:00)
68 Star Chronicles: Delta Quadrant Jul 7, 2015 $0.9917% (59%)200,000 .. 500,0000.15%00:32 (00:20)
69 Boss Monster Apr 28, 2016 $4.9915% (57%)20,000 .. 50,0000%00:00 (00:00)
70 Annie Amber Jun 17, 2016 $2.99N/A (N/A)0 .. 20,0000%00:00 (00:00)
71 Hardware Engineering Sep 28, 2016 $4.9914% (56%)0 .. 20,0000%00:00 (00:00)
72 Autocraft Sep 20, 2017 $9.9913% (54%)20,000 .. 50,0000%00:00 (00:00)
73 Pointless Feb 22, 2016 Free12% (53%)0 .. 20,0000%00:00 (00:00)
74 1953: NATO vs Warsaw Pact Nov 11, 2014 $19.9912% (52%)0 .. 20,0000%00:00 (00:00)
75 Quantum Rush Champions Dec 4, 2014 $9.9911% (51%)20,000 .. 50,0000%00:00 (00:00)
76 The Good Life Nov 2, 2012 $9.9911% (51%)20,000 .. 50,0000%00:00 (00:00)
77 Cosmonautica Jul 31, 2015 $9.9911% (51%)200,000 .. 500,0000%00:00 (00:00)
78 BomberZone Jun 10, 2016 $1.99N/A (N/A)20,000 .. 50,0000.45%05:53 (01:57)
79 Autumn May 14, 2016 $2.9910% (50%)50,000 .. 100,0000%00:00 (00:00)
80 Evolution Jun 6, 2016 Free8% (46%)20,000 .. 50,0000%00:00 (00:00)
81 Luke Sidewalker Dec 5, 2016 $0.99N/A (N/A)50,000 .. 100,0000.49%00:30 (00:10)
82 Melting Hearts: Our Love Will Grow 2 Apr 29, 2016 N/AN/A (N/A)20,000 .. 50,0000%00:00 (00:00)
83 White Mirror Jan 26, 2016 $1.995% (39%)200,000 .. 500,0000%00:00 (00:00)
84 The Battle for Sector 219 Jun 2, 2016 $6.99N/A (N/A)0 .. 20,0000%00:00 (00:00)
85 Robot vs Birds Zombies Jun 1, 2013 $0.993% (31%)50,000 .. 100,0000%00:00 (00:00)
86 Guardians of Victoria Apr 29, 2016 $1.991% (22%)200,000 .. 500,0000.15%02:34 (01:42)
87 Blob From Space Oct 15, 2014 $5.99N/A (N/A)20,000 .. 50,0000%00:00 (00:00)
88 Crab Cakes Rescue Nov 14, 2014 $6.99N/A (N/A)20,000 .. 50,0000%00:00 (00:00)
89 Reigning Cats Aug 28, 2015 $1.99N/A (N/A)0 .. 20,0000%00:00 (00:00)
90 Way to Go! Jun 8, 2015 $4.99N/A (N/A)0 .. 20,0001.25%00:03 (00:01)
91 Plight of the Zombie Feb 22, 2016 $2.99N/A (N/A)0 .. 20,0000%00:00 (00:00)
92 Attempt[42] Dec 8, 2016 $2.99N/A (N/A)50,000 .. 100,0000.22%01:05 (00:21)
93 The Architect Jun 4, 2015 $2.99N/A (N/A)0 .. 20,0000%00:00 (00:00)
94 Tyler Jan 14, 2016 $1.01N/A (N/A)0 .. 20,0000%00:00 (00:00)
95 Robot Rescue Revolution Jul 11, 2014 $4.99N/A (N/A)0 .. 20,0000%00:00 (00:00)
96 Yrminsul Mar 2, 2016 $9.99N/A (N/A)0 .. 20,0000%00:00 (00:00)
97 Magic Box Jan 19, 2017 $0.99N/A (N/A)50,000 .. 100,0000%00:00 (00:00)

Tags over time:

Access restricted.

This feature is only available to users with special access rights. Sorry.

If you want to proceed, you need to register or log in first and then back Steam Spy on Patreon. Look for Indie or Pro pledge.

Don't forget to use the same email as on Steam Spy!

Owners of this game also own:

Access restricted.

This feature is only available to users with special access rights. Sorry.

If you want to proceed, you need to register or log in first and then back Steam Spy on Patreon. Look for Indie or Pro pledge.

Don't forget to use the same email as on Steam Spy!

Playtime distribution:

Access restricted.

This feature is only available to users with special access rights. Sorry.

If you want to proceed, you need to register or log in first and then back Steam Spy on Patreon. Look for Indie or Pro pledge.

Don't forget to use the same email as on Steam Spy!

Playtime (2 weeks):

Access restricted.

This feature is only available to users with special access rights. Sorry.

If you want to proceed, you need to register or log in first and then back Steam Spy on Patreon. Look for Indie or Pro pledge.

Don't forget to use the same email as on Steam Spy!

User reviews:

Login required.

Please register or log in to see this information.